Time;durP1;ratioP1;P1;durP2;ratioP2;P2;SDS_P1;SDS_P2;PMS_P1;PMS_P2;Temp;Humidity;BMP_temperature;BMP_pressure;BME280_temperature;BME280_humidity;BME280_pressure;Samples;Min_cycle;Max_cycle;Signal;HPM_P1;HPM_P2
2021/01/17 00:00:33;;;;;;;12.82;2.42;;;4.10;99.90;;;;;;5099601;28;20368;-74
2021/01/17 00:03:01;;;;;;;;;;;3.90;99.90;;;;;;5099930;28;20055;-74
2021/01/17 00:05:29;;;;;;;4.00;2.25;;;3.80;99.90;;;;;;5098273;28;19912;-74
2021/01/17 00:07:55;;;;;;;7.65;2.50;;;3.80;99.90;;;;;;5098916;28;20031;-74
2021/01/17 00:10:25;;;;;;;;;;;3.80;99.90;;;;;;5100293;28;20020;-74
2021/01/17 00:12:51;;;;;;;2.88;2.20;;;3.90;99.90;;;;;;5099566;28;19904;-73
2021/01/17 00:15:17;;;;;;;8.82;3.28;;;3.70;99.90;;;;;;5099148;28;20495;-74
2021/01/17 00:17:44;;;;;;;;;;;3.60;99.90;;;;;;5099816;28;20039;-74
2021/01/17 00:20:15;;;;;;;5.22;2.65;;;3.70;99.90;;;;;;5098966;28;20288;-73
2021/01/17 00:22:42;;;;;;;3.28;2.70;;;3.70;99.90;;;;;;5099315;28;20035;-74
2021/01/17 00:25:18;;;;;;;4.90;2.67;;;3.50;99.90;;;;;;5099207;28;20016;-74
2021/01/17 00:27:51;;;;;;;;;;;3.50;99.90;;;;;;5099548;28;20380;-73
2021/01/17 00:30:19;;;;;;;4.55;2.47;;;3.30;99.90;;;;;;5098937;28;19917;-73
2021/01/17 00:32:52;;;;;;;3.22;2.50;;;3.60;99.90;;;;;;5097830;28;20028;-74
2021/01/17 00:35:18;;;;;;;2.30;2.05;;;3.10;99.90;;;;;;5098911;28;20032;-73
2021/01/17 00:37:44;;;;;;;;;;;3.30;99.90;;;;;;5099378;28;20024;-73
2021/01/17 00:40:11;;;;;;;2.67;2.45;;;3.10;99.90;;;;;;5097325;28;19923;-73
2021/01/17 00:42:44;;;;;;;2.55;2.35;;;3.20;99.90;;;;;;5098808;28;20032;-74
2021/01/17 00:45:11;;;;;;;7.95;2.75;;;3.20;99.90;;;;;;5097267;28;20024;-73
2021/01/17 00:47:37;;;;;;;2.22;2.03;;;3.30;99.90;;;;;;5098879;28;20108;-74
2021/01/17 00:50:04;;;;;;;;;;;3.00;99.90;;;;;;5099368;28;20032;-73
2021/01/17 00:52:30;;;;;;;3.03;2.10;;;3.10;99.90;;;;;;5098560;28;20360;-73
2021/01/17 00:54:55;;;;;;;;;;;2.90;99.90;;;;;;5099100;28;20058;-73
2021/01/17 00:57:21;;;;;;;3.45;2.20;;;3.00;99.90;;;;;;5098536;28;19904;-73
2021/01/17 00:59:47;;;;;;;;;;;3.00;99.90;;;;;;5098863;28;20028;-73
2021/01/17 01:02:12;;;;;;;1.85;1.75;;;3.00;99.90;;;;;;5098412;28;20430;-73
2021/01/17 01:04:38;;;;;;;;;;;2.70;99.90;;;;;;5098585;28;20395;-73
2021/01/17 01:07:04;;;;;;;2.10;2.00;;;2.80;99.90;;;;;;5098514;28;19904;-73
2021/01/17 01:09:30;;;;;;;;;;;3.50;99.90;;;;;;5098696;28;20132;-73
2021/01/17 01:11:56;;;;;;;1.85;1.75;;;2.80;99.90;;;;;;5098299;28;19911;-73
2021/01/17 01:14:21;;;;;;;;;;;2.60;99.90;;;;;;5098580;28;20046;-73
2021/01/17 01:16:51;;;;;;;4.88;2.60;;;2.40;99.90;;;;;;5098374;28;19904;-73
2021/01/17 01:19:18;;;;;;;2.60;2.40;;;2.70;99.90;;;;;;5097281;28;20098;-73
2021/01/17 01:21:44;;;;;;;3.30;2.15;;;2.60;99.90;;;;;;5098106;28;20020;-73
2021/01/17 01:24:10;;;;;;;;;;;2.90;99.90;;;;;;5098505;28;20098;-73
2021/01/17 01:26:41;;;;;;;4.80;2.20;;;2.90;99.90;;;;;;5097901;28;19911;-73
2021/01/17 01:29:07;;;;;;;4.00;2.38;;;2.60;99.90;;;;;;5097931;28;20514;-73
2021/01/17 01:31:35;;;;;;;3.20;2.42;;;3.10;99.90;;;;;;5097841;28;20032;-73
2021/01/17 01:34:01;;;;;;;3.45;2.20;;;2.70;99.90;;;;;;5097955;28;20472;-73
2021/01/17 01:36:30;;;;;;;15.23;2.97;;;1.90;99.90;;;;;;5097759;28;20068;-73
2021/01/17 01:38:56;;;;;;;4.85;2.30;;;2.60;99.90;;;;;;5097667;28;20044;-73
2021/01/17 01:41:34;;;;;;;2.72;2.20;;;2.00;99.90;;;;;;5097695;28;20375;-73
2021/01/17 01:44:01;;;;;;;4.80;2.60;;;2.70;99.90;;;;;;5097604;28;20812;-73
2021/01/17 01:46:30;;;;;;;2.63;2.42;;;2.10;99.90;;;;;;5097574;28;20480;-73
2021/01/17 01:48:58;;;;;;;4.95;2.10;;;2.10;99.90;;;;;;5097574;28;20483;-73
2021/01/17 01:51:25;;;;;;;3.10;2.35;;;2.20;99.90;;;;;;5097544;28;20107;-73
2021/01/17 01:53:55;;;;;;;2.63;2.20;;;2.40;99.90;;;;;;5097590;28;20488;-73
2021/01/17 01:56:21;;;;;;;2.53;2.10;;;2.10;99.90;;;;;;5097430;28;20024;-73
2021/01/17 01:58:47;;;;;;;5.03;2.67;;;2.10;99.90;;;;;;5097429;28;20513;-73
2021/01/17 02:01:13;;;;;;;;;;;1.80;99.90;;;;;;5096446;28;20399;-73
2021/01/17 02:03:44;;;;;;;4.63;2.05;;;2.10;99.90;;;;;;5097236;28;20006;-73
2021/01/17 02:06:13;;;;;;;4.45;2.10;;;1.80;99.90;;;;;;5097075;28;20012;-73
2021/01/17 02:08:57;;;;;;;2.55;2.00;;;2.00;99.90;;;;;;5095997;28;20036;-73
2021/01/17 02:11:45;;;;;;;3.20;2.15;;;2.00;99.90;;;;;;5095894;28;20027;-73
2021/01/17 02:14:21;;;;;;;3.10;2.30;;;2.10;99.90;;;;;;5096795;28;20204;-73
2021/01/17 02:16:48;;;;;;;5.15;2.63;;;2.10;99.90;;;;;;5097378;28;20043;-73
2021/01/17 02:19:16;;;;;;;3.58;2.33;;;2.30;99.90;;;;;;5096739;28;20400;-73
2021/01/17 02:21:51;;;;;;;4.50;2.15;;;1.70;99.90;;;;;;5095824;28;20491;-73
2021/01/17 02:24:23;;;;;;;5.20;2.30;;;1.90;99.90;;;;;;5097234;28;20400;-73
2021/01/17 02:26:49;;;;;;;4.10;2.05;;;2.30;99.90;;;;;;5097190;28;20105;-73
2021/01/17 02:29:15;;;;;;;;;;;;;;;;;;5097179;28;20561;-73
2021/01/17 02:31:43;;;;;;;6.45;2.67;;;1.90;99.90;;;;;;5096529;28;19907;-73
2021/01/17 02:34:10;;;;;;;8.48;2.78;;;2.20;99.90;;;;;;5096785;28;20024;-73
2021/01/17 02:36:48;;;;;;;2.20;2.00;;;1.90;99.90;;;;;;5095440;28;20031;-73
2021/01/17 02:39:44;;;;;;;9.85;2.78;;;2.30;99.90;;;;;;5096574;28;20044;-72
2021/01/17 02:42:11;;;;;;;15.25;2.90;;;;;;;;;;5096920;28;20113;-73
2021/01/17 02:44:37;;;;;;;8.40;2.53;;;2.50;99.90;;;;;;5096593;28;20024;-73
2021/01/17 02:47:03;;;;;;;;;;;2.50;99.90;;;;;;5097272;28;20443;-73
2021/01/17 02:49:30;;;;;;;7.68;2.28;;;2.70;99.90;;;;;;5096606;28;19908;-73
2021/01/17 02:51:57;;;;;;;14.02;2.95;;;2.60;99.90;;;;;;5096730;28;20024;-73
2021/01/17 02:54:28;;;;;;;6.72;2.17;;;2.40;99.90;;;;;;5096763;28;20032;-73
2021/01/17 02:57:05;;;;;;;5.43;2.83;;;2.40;99.90;;;;;;5096898;28;20035;-73
2021/01/17 02:59:41;;;;;;;8.77;2.88;;;2.60;99.90;;;;;;5096322;28;20028;-73
2021/01/17 03:02:08;;;;;;;4.93;2.60;;;2.50;99.90;;;;;;5096653;28;20032;-73
2021/01/17 03:04:46;;;;;;;5.75;3.70;;;3.00;99.90;;;;;;5096368;28;20013;-73
2021/01/17 03:07:13;;;;;;;6.57;2.72;;;2.40;99.90;;;;;;5096619;28;20489;-73
2021/01/17 03:09:43;;;;;;;8.50;3.03;;;2.40;99.90;;;;;;5096689;28;20020;-73
2021/01/17 03:12:09;;;;;;;9.70;3.03;;;2.20;99.90;;;;;;5096332;28;20027;-73
2021/01/17 03:14:35;;;;;;;;;;;2.40;99.90;;;;;;5096956;28;20426;-73
2021/01/17 03:17:04;;;;;;;10.80;3.40;;;2.00;99.90;;;;;;5096470;28;19904;-73
2021/01/17 03:19:30;;;;;;;5.70;2.70;;;2.60;99.90;;;;;;5096476;28;20055;-72
2021/01/17 03:21:56;;;;;;;;;;;;;;;;;;5096826;28;20048;-73
2021/01/17 03:24:22;;;;;;;8.30;3.38;;;2.70;99.90;;;;;;5096454;28;19911;-73
2021/01/17 03:26:47;;;;;;;5.82;3.05;;;2.30;99.90;;;;;;5096429;28;20020;-73
2021/01/17 03:29:13;;;;;;;;;;;;;;;;;;5096645;28;20032;-73
2021/01/17 03:31:39;;;;;;;5.50;3.75;;;2.40;99.90;;;;;;5096303;28;19970;-73
2021/01/17 03:34:05;;;;;;;;;;;2.70;99.90;;;;;;5096643;28;20020;-73
2021/01/17 03:36:31;;;;;;;9.82;2.90;;;2.90;99.90;;;;;;5096289;28;19904;-73
2021/01/17 03:38:56;;;;;;;;;;;2.80;99.90;;;;;;5095190;28;20056;-73
2021/01/17 03:41:25;;;;;;;7.22;3.55;;;;;;;;;;5096220;28;19908;-73
2021/01/17 03:43:51;;;;;;;14.70;3.67;;;3.10;99.90;;;;;;5099515;28;20031;-73
2021/01/17 03:46:17;;;;;;;;;;;2.90;99.90;;;;;;5100444;28;20115;-73
2021/01/17 03:48:43;;;;;;;12.00;3.67;;;3.10;99.90;;;;;;5099917;28;19904;-73
2021/01/17 03:51:09;;;;;;;;;;;;;;;;;;5100249;28;20133;-73
2021/01/17 03:53:35;;;;;;;10.00;3.25;;;3.30;99.90;;;;;;5099898;28;19907;-73
2021/01/17 03:56:01;;;;;;;14.52;3.35;;;3.30;99.90;;;;;;5099726;28;20020;-73
2021/01/17 03:58:26;;;;;;;;;;;3.30;99.90;;;;;;5100476;28;20032;-73
2021/01/17 04:00:52;;;;;;;13.50;2.97;;;3.50;99.90;;;;;;5099420;28;19954;-73
2021/01/17 04:03:18;;;;;;;19.33;3.15;;;3.90;99.90;;;;;;5099649;28;20016;-73
2021/01/17 04:05:44;;;;;;;;;;;3.90;99.90;;;;;;5099749;28;20031;-73
2021/01/17 04:08:10;;;;;;;10.98;3.15;;;4.20;99.90;;;;;;5099740;28;19904;-73
2021/01/17 04:10:35;;;;;;;;;;;4.00;99.90;;;;;;5098575;28;20107;-73
2021/01/17 04:13:01;;;;;;;21.67;3.50;;;3.90;99.90;;;;;;5099427;28;19904;-73
2021/01/17 04:15:27;;;;;;;;;;;4.20;99.90;;;;;;5099610;28;20032;-73
2021/01/17 04:17:53;;;;;;;15.02;3.10;;;4.00;99.90;;;;;;5098072;28;19949;-73
2021/01/17 04:20:18;;;;;;;;;;;4.20;99.90;;;;;;5099668;28;20020;-73
2021/01/17 04:22:44;;;;;;;10.15;2.70;;;4.20;99.90;;;;;;5099445;28;19904;-73
2021/01/17 04:25:10;;;;;;;;;;;4.30;99.90;;;;;;5099601;28;20593;-73
2021/01/17 04:27:36;;;;;;;8.45;2.30;;;4.20;99.90;;;;;;5099306;28;19904;-73
2021/01/17 04:30:03;;;;;;;;;;;4.20;99.90;;;;;;5099264;28;20028;-73
2021/01/17 04:32:28;;;;;;;11.00;2.70;;;4.10;99.90;;;;;;5099170;28;20384;-73
2021/01/17 04:34:54;;;;;;;;;;;4.20;99.90;;;;;;5099279;28;20064;-73
2021/01/17 04:37:21;;;;;;;5.57;2.30;;;4.50;99.90;;;;;;5099261;28;19956;-73
2021/01/17 04:39:47;;;;;;;10.73;3.25;;;4.40;99.90;;;;;;5098765;28;20051;-73
2021/01/17 04:42:17;;;;;;;9.63;3.63;;;4.10;99.90;;;;;;5098850;28;20051;-73
2021/01/17 04:44:54;;;;;;;16.98;5.82;;;4.30;99.90;;;;;;5098596;28;20072;-73
2021/01/17 04:47:21;;;;;;;9.20;2.88;;;4.30;99.90;;;;;;5097977;28;20054;-73
2021/01/17 04:49:53;;;;;;;7.80;2.53;;;4.00;99.90;;;;;;5098720;28;20030;-73
2021/01/17 04:52:21;;;;;;;10.18;3.38;;;4.30;99.90;;;;;;5098872;28;20028;-73
2021/01/17 04:54:53;;;;;;;11.02;2.42;;;4.20;99.90;;;;;;5098469;28;20020;-73
2021/01/17 04:57:43;;;;;;;13.80;3.28;;;4.20;99.90;;;;;;5098904;28;20032;-73
2021/01/17 05:00:10;;;;;;;12.80;3.88;;;4.10;99.90;;;;;;5098306;28;20077;-73
2021/01/17 05:03:13;;;;;;;6.97;2.40;;;4.20;99.90;;;;;;5098482;28;20034;-73
2021/01/17 05:05:54;;;;;;;12.65;2.65;;;4.30;99.90;;;;;;5096989;28;20044;-73
2021/01/17 05:08:30;;;;;;;9.85;2.65;;;4.30;99.90;;;;;;5098357;28;20034;-73
2021/01/17 05:11:00;;;;;;;6.43;2.47;;;4.50;99.90;;;;;;5098272;28;20024;-73
2021/01/17 05:13:54;;;;;;;14.18;2.40;;;4.50;99.90;;;;;;5098078;28;20028;-73
2021/01/17 05:16:23;;;;;;;10.30;2.60;;;4.50;99.90;;;;;;5097921;28;20032;-73
2021/01/17 05:18:49;;;;;;;8.82;2.22;;;4.50;99.90;;;;;;5098040;28;20020;-73
2021/01/17 05:21:24;;;;;;;;;;;4.40;99.90;;;;;;5098745;28;20107;-73
2021/01/17 05:23:58;;;;;;;6.78;2.15;;;4.60;99.90;;;;;;5098213;28;19904;-73
2021/01/17 05:26:24;;;;;;;12.80;2.80;;;4.60;99.90;;;;;;5098300;28;20165;-73
2021/01/17 05:28:50;;;;;;;;;;;4.50;99.90;;;;;;5098137;28;20174;-73
2021/01/17 05:31:18;;;;;;;7.82;1.65;;;4.50;99.90;;;;;;5098313;28;19951;-73
2021/01/17 05:33:44;;;;;;;2.55;1.58;;;4.50;99.90;;;;;;5097720;28;20070;-73
2021/01/17 05:36:15;;;;;;;3.20;1.67;;;4.50;99.90;;;;;;5098011;28;20024;-73
2021/01/17 05:38:41;;;;;;;3.97;1.83;;;4.60;99.90;;;;;;5097413;28;20044;-73
2021/01/17 05:41:25;;;;;;;;;;;4.50;99.90;;;;;;5098223;28;20031;-73
2021/01/17 05:43:51;;;;;;;10.18;2.30;;;4.40;99.90;;;;;;5097529;28;19904;-73
2021/01/17 05:46:17;;;;;;;;;;;4.70;99.90;;;;;;5098316;28;20101;-73
2021/01/17 05:48:42;;;;;;;3.15;1.50;;;4.60;99.90;;;;;;5097633;28;19947;-73
2021/01/17 05:51:08;;;;;;;;;;;4.40;99.90;;;;;;5098008;28;20026;-73
2021/01/17 05:53:34;;;;;;;4.97;2.03;;;4.50;99.90;;;;;;5097506;28;19956;-73
2021/01/17 05:56:14;;;;;;;;;;;4.40;99.90;;;;;;5098040;28;20031;-73
2021/01/17 05:58:44;;;;;;;2.63;1.60;;;4.60;99.90;;;;;;5097361;28;19931;-73
2021/01/17 06:01:19;;;;;;;8.95;2.15;;;4.60;99.90;;;;;;5097300;28;20135;-73
2021/01/17 06:03:50;;;;;;;5.33;2.53;;;4.50;99.90;;;;;;5097612;28;20051;-73
2021/01/17 06:06:25;;;;;;;4.82;2.20;;;3.90;99.90;;;;;;5096771;28;20259;-73
2021/01/17 06:08:53;;;;;;;9.00;2.00;;;4.50;99.90;;;;;;5097351;28;20024;-73
2021/01/17 06:11:20;;;;;;;16.00;3.17;;;4.60;99.90;;;;;;5097484;28;20020;-73
2021/01/17 06:13:54;;;;;;;12.43;2.85;;;4.70;99.90;;;;;;5096938;28;20028;-73
2021/01/17 06:16:28;;;;;;;7.25;2.20;;;4.60;99.90;;;;;;5097388;28;20012;-73
2021/01/17 06:18:59;;;;;;;12.80;3.10;;;4.60;99.90;;;;;;5096940;28;20042;-73
2021/01/17 06:21:27;;;;;;;11.98;3.45;;;5.40;99.90;;;;;;5097296;28;20016;-73
2021/01/17 06:24:00;;;;;;;10.07;2.78;;;4.80;99.90;;;;;;5097109;28;20073;-73
2021/01/17 06:26:32;;;;;;;10.38;2.22;;;4.60;99.90;;;;;;5097102;28;20115;-73
2021/01/17 06:28:59;;;;;;;7.32;2.30;;;4.90;99.90;;;;;;5096805;28;20336;-73
2021/01/17 06:31:28;;;;;;;7.03;3.17;;;4.70;99.90;;;;;;5097002;28;20125;-73
2021/01/17 06:34:11;;;;;;;3.45;1.83;;;4.70;99.90;;;;;;5096819;28;20384;-73
2021/01/17 06:36:39;;;;;;;7.50;2.53;;;4.70;99.90;;;;;;5096856;28;20086;-73
2021/01/17 06:39:26;;;;;;;11.65;2.85;;;4.80;99.90;;;;;;5096573;28;20048;-73
2021/01/17 06:41:55;;;;;;;6.00;2.53;;;4.80;99.90;;;;;;5095453;28;20031;-73
2021/01/17 06:44:32;;;;;;;5.15;2.30;;;4.80;99.90;;;;;;5096533;28;20487;-72
2021/01/17 06:46:59;;;;;;;4.55;2.22;;;4.90;99.90;;;;;;5095476;28;20028;-73
2021/01/17 06:49:27;;;;;;;11.57;3.30;;;4.90;99.90;;;;;;5096662;28;20098;-73
2021/01/17 06:51:54;;;;;;;9.70;4.30;;;5.00;99.90;;;;;;5096782;28;20056;-73
2021/01/17 06:54:22;;;;;;;10.77;3.83;;;4.90;99.90;;;;;;5096525;28;20055;-73
2021/01/17 06:56:50;;;;;;;7.70;2.72;;;4.90;99.90;;;;;;5096883;28;20047;-73
2021/01/17 06:59:35;;;;;;;16.23;3.38;;;4.80;99.90;;;;;;5096487;28;20533;-73
2021/01/17 07:02:13;;;;;;;10.73;3.00;;;4.90;99.90;;;;;;5096637;28;20075;-72
2021/01/17 07:04:41;;;;;;;6.40;2.83;;;4.80;99.90;;;;;;5096373;28;20016;-73
2021/01/17 07:07:25;;;;;;;8.10;2.97;;;4.80;99.90;;;;;;5096539;28;20070;-73
2021/01/17 07:10:08;;;;;;;5.75;2.47;;;4.80;99.90;;;;;;5096610;28;20444;-73
2021/01/17 07:13:02;;;;;;;7.32;2.92;;;4.70;99.90;;;;;;5096352;28;20027;-73
2021/01/17 07:15:36;;;;;;;7.93;3.75;;;4.80;99.90;;;;;;5094816;28;20158;-73
2021/01/17 07:18:10;;;;;;;10.68;2.95;;;5.30;99.90;;;;;;5100543;28;20032;-72
2021/01/17 07:20:37;;;;;;;9.90;2.80;;;4.70;99.90;;;;;;5098999;28;20020;-73
2021/01/17 07:23:04;;;;;;;5.93;2.22;;;4.80;99.90;;;;;;5100446;28;20383;-73
2021/01/17 07:25:32;;;;;;;8.98;3.35;;;4.60;99.90;;;;;;5100332;28;20023;-72
2021/01/17 07:28:11;;;;;;;7.43;3.13;;;4.90;99.90;;;;;;5100345;28;20028;-73
2021/01/17 07:30:55;;;;;;;4.35;2.20;;;4.70;99.90;;;;;;5100151;28;20031;-73
2021/01/17 07:33:29;;;;;;;10.98;3.13;;;4.40;99.90;;;;;;5100141;28;20031;-73
2021/01/17 07:35:58;;;;;;;14.20;3.85;;;4.50;99.90;;;;;;5100320;28;20016;-73
2021/01/17 07:38:39;;;;;;;17.33;3.80;;;4.20;99.90;;;;;;5099875;28;20399;-73
2021/01/17 07:41:08;;;;;;;17.00;3.17;;;3.90;99.90;;;;;;5098798;28;20049;-73
2021/01/17 07:43:39;;;;;;;6.85;2.60;;;4.10;99.90;;;;;;5099755;28;20028;-72
2021/01/17 07:46:08;;;;;;;14.98;3.85;;;4.30;99.90;;;;;;5099924;28;20122;-73
2021/01/17 07:48:35;;;;;;;12.57;4.60;;;4.10;99.90;;;;;;5099967;28;20026;-73
2021/01/17 07:51:03;;;;;;;16.88;4.75;;;4.00;99.90;;;;;;5099825;28;20022;-72
2021/01/17 07:53:41;;;;;;;12.00;3.75;;;4.00;99.90;;;;;;5099964;28;20047;-72
2021/01/17 07:56:14;;;;;;;12.32;3.67;;;3.90;99.90;;;;;;5099920;28;20028;-73
2021/01/17 07:58:45;;;;;;;8.88;3.63;;;3.80;99.90;;;;;;5099703;28;20182;-73
2021/01/17 08:01:35;;;;;;;8.63;3.05;;;3.80;99.90;;;;;;5099543;28;20020;-73
2021/01/17 08:04:04;;;;;;;15.27;3.95;;;4.00;99.90;;;;;;5099466;28;20081;-72
2021/01/17 08:06:35;;;;;;;10.18;3.83;;;4.00;99.90;;;;;;5099768;28;20468;-73
2021/01/17 08:09:08;;;;;;;7.35;3.05;;;3.80;99.90;;;;;;5099611;28;20043;-73
2021/01/17 08:11:56;;;;;;;10.15;2.63;;;3.70;99.90;;;;;;5099592;28;20073;-73
2021/01/17 08:14:32;;;;;;;7.00;3.45;;;3.60;99.90;;;;;;5099080;28;20047;-73
2021/01/17 08:17:14;;;;;;;6.75;2.88;;;3.70;99.90;;;;;;5099262;28;20048;-73
2021/01/17 08:19:54;;;;;;;5.70;2.67;;;3.70;99.90;;;;;;5099350;28;20062;-73
2021/01/17 08:22:23;;;;;;;5.68;2.55;;;3.50;99.90;;;;;;5099229;28;20020;-73
2021/01/17 08:24:56;;;;;;;8.75;3.55;;;3.60;99.90;;;;;;5099437;28;20024;-73
2021/01/17 08:27:42;;;;;;;5.38;3.17;;;3.70;99.90;;;;;;5099138;28;20065;-73
2021/01/17 08:30:08;;;;;;;8.43;3.63;;;3.70;99.90;;;;;;5099017;28;20476;-73
2021/01/17 08:32:49;;;;;;;12.82;5.05;;;3.50;99.90;;;;;;5099224;28;20097;-73
2021/01/17 08:35:20;;;;;;;12.07;4.25;;;3.40;99.90;;;;;;5098932;28;20028;-73
2021/01/17 08:37:52;;;;;;;14.30;4.78;;;3.60;99.90;;;;;;5099086;28;20081;-73
2021/01/17 08:40:30;;;;;;;10.02;4.00;;;3.40;99.90;;;;;;5098807;28;20048;-73
2021/01/17 08:43:00;;;;;;;14.68;5.35;;;4.00;99.90;;;;;;5098934;28;20074;-73
2021/01/17 08:45:26;;;;;;;9.07;4.07;;;4.60;99.90;;;;;;5098887;28;20061;-73
2021/01/17 08:47:54;;;;;;;;;;;5.20;99.90;;;;;;5099283;28;20058;-73
2021/01/17 08:50:38;;;;;;;6.05;3.38;;;5.60;99.90;;;;;;5098863;28;19956;-72
2021/01/17 08:53:13;;;;;;;5.32;2.75;;;6.10;99.90;;;;;;5098637;28;20365;-73
2021/01/17 08:55:47;;;;;;;7.55;2.90;;;6.70;99.90;;;;;;5098848;28;20234;-72
2021/01/17 08:58:37;;;;;;;5.00;2.97;;;7.50;99.90;;;;;;5085734;28;20103;-73
2021/01/17 09:01:05;;;;;;;10.00;2.88;;;8.10;99.90;;;;;;5085918;28;20032;-73
2021/01/17 09:03:32;;;;;;;8.85;3.40;;;8.70;99.90;;;;;;5098403;28;20388;-73
2021/01/17 09:05:59;;;;;;;10.63;3.97;;;8.90;99.90;;;;;;5097702;28;20052;-73
2021/01/17 09:08:26;;;;;;;9.73;3.03;;;8.40;99.90;;;;;;5096288;28;20492;-73
2021/01/17 09:10:52;;;;;;;8.88;4.38;;;8.00;99.90;;;;;;5095215;28;20051;-72
2021/01/17 09:13:19;;;;;;;11.48;4.63;;;7.60;99.90;;;;;;5097704;28;20031;-72
2021/01/17 09:16:09;;;;;;;12.63;3.88;;;8.10;99.90;;;;;;5098214;28;20031;-72
2021/01/17 09:18:39;;;;;;;21.45;4.20;;;8.70;99.90;;;;;;5097745;28;20031;-72
2021/01/17 09:21:06;;;;;;;15.65;3.33;;;9.20;99.90;;;;;;5097966;28;20050;-72
2021/01/17 09:23:37;;;;;;;16.25;3.85;;;9.20;99.90;;;;;;5098128;28;20024;-73
2021/01/17 09:26:04;;;;;;;14.40;3.90;;;9.40;99.90;;;;;;5097871;28;20020;-70
2021/01/17 09:28:30;;;;;;;15.50;3.55;;;9.70;99.90;;;;;;5095925;28;20055;-73
2021/01/17 09:31:01;;;;;;;31.65;4.82;;;9.90;99.90;;;;;;5097356;28;20036;-68
2021/01/17 09:33:28;;;;;;;9.40;3.03;;;10.00;99.90;;;;;;5096132;28;20027;-69
2021/01/17 09:35:54;;;;;;;13.20;3.72;;;10.30;99.90;;;;;;5098044;28;20020;-72
2021/01/17 09:38:22;;;;;;;9.18;3.00;;;10.40;99.90;;;;;;5097534;28;20020;-72
2021/01/17 09:40:50;;;;;;;8.65;3.10;;;10.20;99.90;;;;;;5095778;28;20027;-72
2021/01/17 09:43:17;;;;;;;19.98;3.65;;;10.20;99.90;;;;;;5097639;28;20016;-72
2021/01/17 09:45:59;;;;;;;15.30;4.25;;;9.70;99.90;;;;;;5097786;28;20028;-72
2021/01/17 09:48:25;;;;;;;9.70;2.92;;;9.70;99.90;;;;;;5097580;28;20027;-72
2021/01/17 09:50:52;;;;;;;17.73;4.00;;;9.90;99.90;;;;;;5097746;28;20028;-72
2021/01/17 09:53:18;;;;;;;9.15;3.38;;;10.20;99.90;;;;;;5097562;28;20032;-72
2021/01/17 09:55:46;;;;;;;13.48;3.63;;;10.20;99.90;;;;;;5097722;28;20020;-72
2021/01/17 09:58:14;;;;;;;11.40;3.28;;;10.70;99.90;;;;;;5097360;28;20016;-72
2021/01/17 10:00:42;;;;;;;13.00;3.67;;;11.20;99.90;;;;;;5097333;28;20031;-72
2021/01/17 10:03:14;;;;;;;15.00;3.85;;;11.50;99.90;;;;;;5097621;28;20024;-72
2021/01/17 10:05:41;;;;;;;16.48;5.25;;;11.40;99.90;;;;;;5097245;28;20023;-72
2021/01/17 10:08:12;;;;;;;20.63;5.05;;;11.10;99.90;;;;;;5097478;28;20024;-72
2021/01/17 10:10:41;;;;;;;21.92;4.47;;;11.50;99.90;;;;;;5097153;28;20097;-72
2021/01/17 10:13:08;;;;;;;21.75;4.22;;;12.50;99.90;;;;;;5088886;28;20036;-72
2021/01/17 10:15:35;;;;;;;19.20;4.78;;;12.50;99.90;;;;;;5091270;28;20108;-72
2021/01/17 10:18:02;;;;;;;21.90;4.60;;;11.90;99.90;;;;;;5095742;28;20024;-72
2021/01/17 10:20:37;;;;;;;13.90;3.90;;;11.60;99.90;;;;;;5096369;28;20031;-72
2021/01/17 10:23:04;;;;;;;13.95;4.13;;;11.20;99.90;;;;;;5097097;28;20042;-72
2021/01/17 10:25:32;;;;;;;13.98;3.55;;;10.70;99.90;;;;;;5084572;28;20480;-72
2021/01/17 10:28:08;;;;;;;18.58;4.80;;;10.60;99.90;;;;;;5096594;28;20015;-72
2021/01/17 10:30:42;;;;;;;16.45;4.10;;;10.40;99.90;;;;;;5096629;28;20430;-72
2021/01/17 10:33:13;;;;;;;19.45;4.30;;;10.60;99.90;;;;;;5096853;28;20030;-72
2021/01/17 10:35:48;;;;;;;15.20;3.35;;;11.80;99.90;;;;;;5096396;28;20563;-72
2021/01/17 10:38:15;;;;;;;14.00;3.78;;;13.00;99.90;;;;;;5096543;28;20059;-72
2021/01/17 10:40:43;;;;;;;16.90;3.42;;;13.40;99.90;;;;;;5096866;28;20028;-72
2021/01/17 10:43:22;;;;;;;17.30;5.78;;;13.80;99.90;;;;;;5096052;28;20103;-72
2021/01/17 10:45:58;;;;;;;13.45;3.72;;;14.20;99.90;;;;;;5096978;28;20489;-66
2021/01/17 10:48:24;;;;;;;20.30;4.20;;;14.60;99.90;;;;;;5096454;28;20476;-72
2021/01/17 10:50:54;;;;;;;18.75;4.75;;;14.40;99.90;;;;;;5096608;28;20040;-71
2021/01/17 10:53:28;;;;;;;14.35;3.53;;;14.50;99.90;;;;;;5096955;28;20031;-71
2021/01/17 10:55:56;;;;;;;19.10;3.88;;;14.50;99.90;;;;;;5096844;28;20550;-72
2021/01/17 10:58:43;;;;;;;15.85;4.40;;;14.40;99.90;;;;;;5084480;28;20394;-72
2021/01/17 11:01:09;;;;;;;16.02;3.72;;;14.80;99.90;;;;;;5096842;28;20028;-72
2021/01/17 11:03:36;;;;;;;10.77;3.53;;;15.00;99.90;;;;;;5096690;28;20090;-72
2021/01/17 11:06:09;;;;;;;16.85;3.80;;;14.90;99.90;;;;;;5095940;28;20057;-72
2021/01/17 11:08:54;;;;;;;13.38;4.00;;;14.30;99.90;;;;;;5096024;28;20012;-72
2021/01/17 11:11:23;;;;;;;19.38;4.05;;;14.40;99.90;;;;;;5095222;28;20028;-72
2021/01/17 11:13:58;;;;;;;12.48;3.30;;;14.20;99.90;;;;;;5091281;28;20035;-71
2021/01/17 11:16:43;;;;;;;16.65;3.85;;;14.10;99.90;;;;;;5096809;28;20024;-72
2021/01/17 11:19:13;;;;;;;12.80;3.15;;;14.60;99.90;;;;;;5096157;28;20032;-72
2021/01/17 11:21:40;;;;;;;17.33;5.20;;;15.10;99.90;;;;;;5096636;28;20127;-72
2021/01/17 11:24:06;;;;;;;15.40;4.50;;;14.90;99.90;;;;;;5096477;28;20055;-72
2021/01/17 11:26:32;;;;;;;10.93;4.18;;;14.90;99.90;;;;;;5096310;28;20023;-72
2021/01/17 11:29:03;;;;;;;16.58;3.50;;;14.80;99.90;;;;;;5096171;28;20099;-72
2021/01/17 11:31:29;;;;;;;19.92;4.47;;;15.10;99.90;;;;;;5096385;28;20020;-72
2021/01/17 11:33:55;;;;;;;16.40;4.05;;;14.50;99.90;;;;;;5096392;28;20377;-72
2021/01/17 11:36:23;;;;;;;9.65;3.25;;;14.00;99.90;;;;;;5096335;28;20031;-72
2021/01/17 11:38:54;;;;;;;18.67;3.70;;;13.80;99.90;;;;;;5096239;28;20048;-72
2021/01/17 11:41:23;;;;;;;13.30;3.00;;;13.60;99.90;;;;;;5096416;28;20070;-71
2021/01/17 11:43:49;;;;;;;21.13;3.20;;;13.80;99.90;;;;;;5096335;28;20025;-72
2021/01/17 11:46:16;;;;;;;14.93;3.67;;;14.00;99.90;;;;;;5096369;28;20361;-72
2021/01/17 11:48:43;;;;;;;12.27;3.05;;;14.10;99.90;;;;;;5096260;28;20074;-71
2021/01/17 11:51:10;;;;;;;22.35;3.97;;;14.10;99.90;;;;;;5096126;28;20127;-72
2021/01/17 11:53:37;;;;;;;16.48;4.07;;;14.10;99.90;;;;;;5096182;28;20103;-72
2021/01/17 11:56:03;;;;;;;8.45;2.80;;;14.20;99.90;;;;;;5096115;28;20404;-72
2021/01/17 11:58:41;;;;;;;14.65;3.05;;;14.20;99.90;;;;;;5096016;28;20031;-72
2021/01/17 12:01:07;;;;;;;11.18;3.05;;;14.60;99.90;;;;;;5095838;28;20067;-72
2021/01/17 12:03:35;;;;;;;15.50;3.42;;;15.00;99.90;;;;;;5097281;28;20038;-72
2021/01/17 12:06:10;;;;;;;9.48;2.70;;;15.40;99.90;;;;;;5099775;28;20109;-72
2021/01/17 12:08:54;;;;;;;10.73;2.53;;;15.20;99.90;;;;;;5099843;28;20026;-72
2021/01/17 12:11:48;;;;;;;10.88;3.00;;;15.00;99.90;;;;;;5099811;28;20107;-72
2021/01/17 12:14:26;;;;;;;12.40;2.55;;;15.40;99.90;;;;;;5097548;28;20053;-72
2021/01/17 12:16:54;;;;;;;15.95;3.30;;;15.40;99.90;;;;;;5099458;28;20020;-72
2021/01/17 12:19:21;;;;;;;13.90;4.05;;;15.00;99.90;;;;;;5099397;28;20039;-73
2021/01/17 12:21:49;;;;;;;8.50;2.42;;;14.50;99.90;;;;;;5099431;28;20016;-72
2021/01/17 12:24:17;;;;;;;9.43;2.80;;;14.50;99.90;;;;;;5099557;28;20099;-72
2021/01/17 12:26:44;;;;;;;12.18;3.08;;;14.40;99.90;;;;;;5099231;28;20099;-72
2021/01/17 12:29:11;;;;;;;9.65;2.25;;;14.30;99.90;;;;;;5099239;28;20388;-72
2021/01/17 12:31:38;;;;;;;5.03;1.75;;;14.10;99.90;;;;;;5099177;28;20016;-72
2021/01/17 12:34:05;;;;;;;10.95;2.55;;;14.10;99.90;;;;;;5099209;28;20028;-72
2021/01/17 12:36:32;;;;;;;10.45;2.78;;;14.30;99.90;;;;;;5099205;28;20020;-72
2021/01/17 12:38:58;;;;;;;10.43;2.40;;;14.60;99.90;;;;;;5099088;28;20511;-72
2021/01/17 12:41:30;;;;;;;9.00;2.30;;;15.20;99.90;;;;;;5098905;28;20085;-72
2021/01/17 12:43:56;;;;;;;9.85;2.78;;;15.20;99.90;;;;;;5098944;28;20464;-72
2021/01/17 12:46:22;;;;;;;8.98;2.10;;;14.60;99.90;;;;;;5098824;28;20027;-72
2021/01/17 12:48:48;;;;;;;10.73;2.33;;;14.10;99.90;;;;;;5097733;28;20122;-72
2021/01/17 12:51:15;;;;;;;9.15;2.95;;;13.70;99.90;;;;;;5099068;28;20480;-72
2021/01/17 12:53:43;;;;;;;9.88;2.60;;;13.20;99.90;;;;;;5098855;28;20028;-72
2021/01/17 12:56:09;;;;;;;12.88;2.42;;;12.90;99.90;;;;;;5098730;28;20088;-72
2021/01/17 12:58:36;;;;;;;12.07;2.50;;;13.10;99.90;;;;;;5098522;28;20036;-72
2021/01/17 13:01:03;;;;;;;12.85;3.40;;;13.40;99.90;;;;;;5098379;28;20032;-72
2021/01/17 13:03:28;;;;;;;9.57;1.80;;;13.40;99.90;;;;;;5098309;28;20027;-72
2021/01/17 13:05:54;;;;;;;11.27;1.92;;;13.20;99.90;;;;;;5098332;28;20012;-72
2021/01/17 13:08:21;;;;;;;11.93;2.25;;;13.40;99.90;;;;;;5098495;28;20388;-73
2021/01/17 13:10:48;;;;;;;11.73;2.33;;;14.20;99.90;;;;;;5098506;28;20024;-72
2021/01/17 13:13:15;;;;;;;12.50;2.10;;;14.60;99.90;;;;;;5098192;28;20078;-72
2021/01/17 13:15:54;;;;;;;8.73;1.73;;;14.90;99.90;;;;;;5098200;28;20024;-72